Nearby METAR Reports

 

EGMC - Southend-On-Sea, United Kingdom
Distance from station: NE 10km
Updated: 22/05/2022 03:50
Clear
Clear
 Wind from W
Wind: W 5 mph , 7 km/h
Temperature: 9°C
Wind Chill: 8°C
Dew Point: 8°C
Humidity: 94%
Barometer: 1017 hPa
Summary: Clear
Visibility: greater than 7 miles , 10 km
2022/05/22 02:50 EGMC 220250Z 26004KT CAVOK 09/08 Q1017
EGLC - London City Airp, United Kingdom
Distance from station: W 37km
Updated: 22/05/2022 04:20
Clear
Clear
 Wind from SSW
Wind: SSW 5 mph , 7 km/h
Temperature: 12°C
Dew Point: 10°C
Humidity: 88%
Barometer: 1018 hPa
Clouds: Clear
Visibility: 6 miles , 10 km
2022/05/22 03:20 EGLC 220320Z AUTO 21004KT 9999 NCD 12/10 Q1018
EGKB - Biggin Hill, United Kingdom
Distance from station: WSW 45km
Updated: 21/05/2022 21:20
NOT Current
Clear
Clear
 Wind from SSW
Wind: SSW 9 mph , 15 km/h
Temperature: 13°C
Dew Point: 9°C
Humidity: 77%
Barometer: 1020 hPa
Summary: Clear
Visibility: greater than 7 miles , 10 km
2022/05/21 20:20 EGKB 212020Z 20008KT CAVOK 13/09 Q1020
 
EGSS - Stansted Airport, United Kingdom
Distance from station: NNW 48km
Updated: 22/05/2022 04:20
Clear
Clear
 Wind from WSW
Wind: WSW 2 mph , 4 km/h
Temperature: 8°C
Dew Point: 6°C
Humidity: 87%
Barometer: 1017 hPa
Clouds: Clear
Visibility: 6 miles , 10 km
2022/05/22 03:20 EGSS 220320Z AUTO 24002KT 9999 NCD 08/06 Q1017
EGKK - London/Gatwick A, United Kingdom
Distance from station: SW 67km
Updated: 22/05/2022 04:20
Mist, Partly cloudy
Mist, Partly cloudy
 Wind from SW
Wind: SW 1 mph , 2 km/h
Temperature: 9°C
Dew Point: 8°C
Humidity: 94%
Barometer: 1017 hPa
Summary: Mist
Clouds: Partly cloudy
Visibility: 6 miles , 10 km
2022/05/22 03:20 EGKK 220320Z 23001KT 9999 2000W BR NSC 09/08 Q1017
EGMD - Lydd Airport, United Kingdom
Distance from station: SSE 67km
Updated: 22/05/2022 04:20
Clear
Clear
 Wind from N
Wind: N 2 mph , 4 km/h
Temperature: 7°C
Dew Point: 7°C
Humidity: 100%
Barometer: 1018 hPa
Clouds: Clear
Visibility: 6 miles , 10 km
2022/05/22 03:20 EGMD 220320Z AUTO 35002KT 9999 NCD 07/07 Q1018
 
EGWU - Northolt Raf, United Kingdom
Distance from station: W 69km
Updated: 22/05/2022 03:50
Few Clouds
Few Clouds
 Wind from calm
Wind: Calm
Temperature: 8°C
Dew Point: 7°C
Humidity: 93%
Barometer: 1017 hPa
Clouds: Few Clouds
Visibility: 6 miles , 10 km
Cloud details: Few Clouds 3658 m
2022/05/22 02:50 EGWU 220250Z AUTO 00000KT 9999 FEW120/// 08/07 Q1017
EGLL - London/Heathrow, United Kingdom
Distance from station: W 72km
Updated: 22/05/2022 04:20
Clear
Clear
 Wind from calm
Wind: Calm
Temperature: 11°C
Dew Point: 9°C
Humidity: 88%
Barometer: 1017 hPa
Clouds: Clear
Visibility: 6 miles , 10 km
2022/05/22 03:20 EGLL 220320Z AUTO 00000KT 9999 NCD 11/09 Q1017 NOSIG
EGUW - Wattisham Raf, United Kingdom
Distance from station: NNE 72km
Updated: 22/05/2022 03:50
Clear
Clear
 Wind from WSW
Wind: WSW 3 mph , 6 km/h
Temperature: 9°C
Dew Point: 7°C
Humidity: 87%
Barometer: 1017 hPa
Clouds: Clear
Visibility: 6 miles , 10 km
2022/05/22 02:50 EGUW 220250Z AUTO 24003KT 9999 NCD 09/07 Q1017
 
EGGW - Luton Airport, United Kingdom
Distance from station: WNW 76km
Updated: 22/05/2022 04:20
Clear
Clear
 Wind from WSW
Wind: WSW 5 mph , 7 km/h
Temperature: 9°C
Wind Chill: 8°C
Dew Point: 6°C
Humidity: 82%
Barometer: 1017 hPa
Clouds: Clear
Visibility: 6 miles , 10 km
2022/05/22 03:20 EGGW 220320Z AUTO 24004KT 9999 NCD 09/06 Q1017
EGSC - Cambridge, United Kingdom
Distance from station: NNW 81km
Updated: 20/05/2022 16:50
NOT Current
Partly cloudy
Partly cloudy
 Wind from SW
Wind: SW 14 mph , 22 km/h
Temperature: 17°C
Dew Point: 8°C
Humidity: 56%
Barometer: 1016 hPa
Clouds: Partly cloudy
Visibility: 6 miles , 10 km
Cloud details: Partly cloudy 1067 m
2022/05/20 15:50 EGSC 201550Z 23012KT 190V260 9999 SCT035 17/08 Q1016